首页
METAR-TAF:

METAR-TAF

机场 :

Wausau, 威斯康辛州, 美国

纬度: 44-55-43N, 经度: 089-37-36W, 海拔: 366米

当前天气观测

该预报发布于6分钟前的10:54 UTC
风速4节,风向东南
温度 17°C
湿度 100%
气压 1014 hPa
能見度: 16.1公里
天空无云

METAR: KAUW 261054Z AUTO 13004KT 10SM CLR 17/17 A2994 RMK AO2 SLP136 T01720172

时间: 06:00 (11:00 UTC)

预报

该预报发布于5小时和27分钟前的05:33 UTC
预报有效从26日的 06点(UTC)到 27日的 06点(UTC)
风速3节,风向多变
能見度: 10公里
散云层高于4000英尺
多云层高于25000英尺
短暂存在
从 26日的 06点(UTC)到 26日的 07点(UTC)
能見度: 8.0公里
散云层高于3500英尺, 积雨云.
雷暴, 雨, 轻雾
从 26日的 1500点(UTC)
风速8节,风向,有时为17节阵风
能見度: 10公里
散云层高于4500英尺
从 26日的 1800点(UTC)
风速9节,风向,有时为17节阵风
能見度: 9.7公里
散云层高于4500英尺
多云层高于11000英尺
小阵雨
短暂存在
从 26日的 18点(UTC)到 26日的 22点(UTC)
能見度: 3.2公里
阴天层高于2500英尺, 积雨云.
雷暴, 大雨
从 27日的 0200点(UTC)
风速5节,风向南转南东
能見度: 10公里
散云层高于5000英尺

TAF: KAUW 260533Z 2606/2706 VRB03KT P6SM SCT040 BKN250 TEMPO 2606/2607 5SM TSRA BR SCT035CB FM261500 18008G17KT P6SM SCT045 FM261800 18009G17KT 6SM -SHRA SCT045 BKN110 TEMPO 2618/2622 2SM +TSRA OVC025CB FM270200 16005KT P6SM SCT050

超过4000个机场的气象观测和天气预报(METAR&TAF报告)。

可查询的气象台以黄色和红色小点在地图上表示。

将鼠标移到小点上方,可查看气象台名称。

然后点击查看天气观测和预报。

如需切换地图:点击带黑十字的绿色按钮放大地图;点击带横线的绿色按钮缩小地图;或者点击绿色箭头查看邻近地区的地图。


METAR-TAF: